Time;durP1;ratioP1;P1;durP2;ratioP2;P2;SDS_P1;SDS_P2;PMS_P1;PMS_P2;Temp;Humidity;BMP_temperature;BMP_pressure;BME280_temperature;BME280_humidity;BME280_pressure;Samples;Min_cycle;Max_cycle;Signal;HPM_P1;HPM_P2
2022/11/17 00:01:38;;;;;;;11.40;9.37;;;9.80;99.90;;;;;;5093625;28;20451;-85
2022/11/17 00:04:05;;;;;;;14.23;10.37;;;9.80;99.90;;;;;;5093097;28;20439;-84
2022/11/17 00:06:33;;;;;;;14.40;10.00;;;9.70;99.90;;;;;;5093255;28;20490;-85
2022/11/17 00:09:00;;;;;;;12.53;9.23;;;9.80;99.90;;;;;;5093760;28;20482;-85
2022/11/17 00:14:31;;;;;;;15.07;10.00;;;9.70;99.90;;;;;;5093982;28;20447;-85
2022/11/17 00:16:57;;;;;;;10.53;8.97;;;9.60;99.90;;;;;;5092609;28;20431;-85
2022/11/17 00:22:10;;;;;;;12.73;8.23;;;9.60;99.90;;;;;;5090075;28;20418;-84
2022/11/17 00:24:37;;;;;;;11.53;9.30;;;9.50;99.90;;;;;;5074769;28;20459;-84
2022/11/17 00:27:04;;;;;;;10.47;9.10;;;9.50;99.90;;;;;;5072696;28;20956;-84
2022/11/17 00:29:31;;;;;;;12.23;9.50;;;9.60;99.90;;;;;;5093986;28;20459;-84
2022/11/17 00:34:43;;;;;;;11.23;8.83;;;9.60;99.90;;;;;;5073079;28;20443;-84
2022/11/17 00:37:12;;;;;;;15.27;8.97;;;9.70;99.90;;;;;;5075122;28;20444;-84
2022/11/17 00:39:39;;;;;;;11.53;8.07;;;9.70;99.90;;;;;;5074554;28;20479;-85
2022/11/17 00:42:05;;;;;;;10.73;7.57;;;9.70;99.90;;;;;;5073017;28;20451;-84
2022/11/17 00:44:32;;;;;;;12.93;8.93;;;9.70;99.90;;;;;;5073638;28;20447;-84
2022/11/17 00:46:59;;;;;;;9.70;7.70;;;9.70;99.90;;;;;;5073257;28;20483;-84
2022/11/17 00:49:26;;;;;;;13.73;7.83;;;9.80;99.90;;;;;;5072777;28;20478;-84
2022/11/17 00:51:53;;;;;;;13.00;8.30;;;9.80;99.90;;;;;;5072638;28;20454;-84
2022/11/17 00:54:22;;;;;;;9.73;8.77;;;9.80;99.90;;;;;;5072500;28;20444;-85
2022/11/17 00:56:49;;;;;;;11.50;8.10;;;9.90;99.90;;;;;;5072659;28;20468;-85
2022/11/17 00:59:16;;;;;;;8.73;7.27;;;9.90;99.90;;;;;;5091845;28;20450;-84
2022/11/17 01:01:43;;;;;;;10.57;7.43;;;10.00;99.90;;;;;;5096370;28;20440;-84
2022/11/17 01:04:11;;;;;;;9.40;6.90;;;10.00;99.90;;;;;;5077266;28;20440;-84
2022/11/17 01:06:40;;;;;;;9.80;6.97;;;10.00;99.90;;;;;;5073021;28;20845;-84
2022/11/17 01:09:11;;;;;;;9.73;8.20;;;10.00;99.90;;;;;;5072333;28;20480;-84
2022/11/17 01:11:40;;;;;;;8.03;7.20;;;10.00;99.90;;;;;;5072465;28;20448;-83
2022/11/17 01:14:07;;;;;;;10.10;8.60;;;9.90;99.90;;;;;;5072254;28;20444;-83
2022/11/17 01:16:34;;;;;;;14.73;9.23;;;9.90;99.90;;;;;;5074485;28;20440;-84
2022/11/17 01:19:02;;;;;;;11.30;8.43;;;9.90;99.90;;;;;;5096047;28;20459;-83
2022/11/17 01:21:30;;;;;;;16.93;9.40;;;9.90;99.90;;;;;;5085088;28;20803;-84
2022/11/17 01:23:59;;;;;;;10.10;7.93;;;9.90;99.90;;;;;;5066602;28;20445;-84
2022/11/17 01:26:27;;;;;;;12.63;9.00;;;9.90;99.90;;;;;;5060588;28;20473;-83
2022/11/17 01:28:56;;;;;;;11.57;8.47;;;9.90;99.90;;;;;;5061429;28;20466;-84
2022/11/17 01:31:26;;;;;;;11.60;8.53;;;9.90;99.90;;;;;;5060775;28;20523;-85
2022/11/17 01:33:54;;;;;;;8.33;7.43;;;9.90;99.90;;;;;;5067435;28;20441;-84
2022/11/17 01:36:23;;;;;;;11.03;7.50;;;10.00;99.90;;;;;;5080257;28;20440;-84
2022/11/17 01:38:50;;;;;;;8.30;6.77;;;10.00;99.90;;;;;;5065953;28;20456;-84
2022/11/17 01:41:19;;;;;;;10.17;8.10;;;10.00;99.90;;;;;;5076835;28;20435;-85
2022/11/17 01:43:48;;;;;;;8.33;7.30;;;10.00;99.90;;;;;;5067394;28;20527;-84
2022/11/17 01:46:31;;;;;;;12.50;8.80;;;10.10;99.90;;;;;;5056952;28;20487;-84
2022/11/17 01:49:02;;;;;;;10.07;7.43;;;10.10;99.90;;;;;;5063452;28;20468;-84
2022/11/17 01:51:32;;;;;;;9.80;8.60;;;10.10;99.90;;;;;;5057511;28;20456;-85
2022/11/17 01:54:00;;;;;;;11.40;9.20;;;10.10;99.90;;;;;;5055543;28;20444;-84
2022/11/17 01:56:32;;;;;;;10.73;7.70;;;10.10;99.90;;;;;;5055689;28;20540;-84
2022/11/17 01:59:05;;;;;;;11.10;7.83;;;10.10;99.90;;;;;;5055340;28;20464;-84
2022/11/17 02:01:33;;;;;;;6.30;5.70;;;10.20;99.90;;;;;;5056139;28;20441;-84
2022/11/17 02:04:01;;;;;;;8.80;6.77;;;10.20;99.90;;;;;;5061285;28;20991;-84
2022/11/17 02:06:33;;;;;;;8.30;7.20;;;10.20;99.90;;;;;;5087325;28;20845;-84
2022/11/17 02:09:02;;;;;;;6.83;6.10;;;10.20;99.90;;;;;;5074825;28;20452;-84
2022/11/17 02:11:34;;;;;;;7.57;6.83;;;10.30;99.90;;;;;;5066184;28;20449;-84
2022/11/17 02:14:02;;;;;;;6.50;5.90;;;10.30;99.90;;;;;;5068046;28;20447;-84
2022/11/17 02:16:29;;;;;;;9.23;7.07;;;10.30;99.90;;;;;;5065736;28;20443;-84
2022/11/17 02:18:57;;;;;;;8.80;7.23;;;10.30;99.90;;;;;;5069994;28;20472;-84
2022/11/17 02:21:54;;;;;;;9.90;6.60;;;10.20;99.90;;;;;;5083648;28;20439;-85
2022/11/17 02:24:59;;;;;;;8.53;7.60;;;10.20;99.90;;;;;;5066228;28;20433;-85
2022/11/17 02:28:09;;;;;;;8.37;7.30;;;10.00;99.90;;;;;;5070384;28;20487;-85
2022/11/17 02:30:46;;;;;;;15.47;7.83;;;10.00;99.90;;;;;;5030001;28;20429;-83
2022/11/17 02:33:21;;;;;;;8.90;6.60;;;9.90;99.90;;;;;;5087516;28;20429;-84
2022/11/17 02:35:53;;;;;;;9.10;7.37;;;9.80;99.90;;;;;;5081037;28;20451;-85
2022/11/17 02:38:30;;;;;;;9.27;7.57;;;9.80;99.90;;;;;;5070201;28;20994;-85
2022/11/17 02:41:04;;;;;;;9.80;6.30;;;9.70;99.90;;;;;;5076592;28;20452;-84
2022/11/17 02:46:25;;;;;;;8.10;7.30;;;9.60;99.90;;;;;;5071376;28;20542;-85
2022/11/17 02:48:55;;;;;;;8.27;6.70;;;9.50;99.90;;;;;;5068002;28;20471;-84
2022/11/17 02:51:24;;;;;;;8.00;6.80;;;9.60;99.90;;;;;;5054769;28;20453;-85
2022/11/17 02:53:54;;;;;;;8.80;6.80;;;9.60;99.90;;;;;;5054058;28;20444;-84
2022/11/17 02:56:21;;;;;;;7.43;6.73;;;9.50;99.90;;;;;;5054053;28;20452;-85
2022/11/17 02:58:50;;;;;;;7.67;7.00;;;9.50;99.90;;;;;;5053633;28;20469;-84
2022/11/17 03:01:33;;;;;;;7.10;6.40;;;9.40;99.90;;;;;;5054009;28;20957;-85
2022/11/17 03:04:26;;;;;;;11.10;7.57;;;9.50;99.90;;;;;;5054235;28;20452;-84
2022/11/17 03:07:06;;;;;;;7.73;6.93;;;9.40;99.90;;;;;;5050901;28;20492;-85
2022/11/17 03:09:44;;;;;;;10.03;6.83;;;9.50;99.90;;;;;;5057652;28;20464;-85
2022/11/17 03:12:16;;;;;;;7.00;6.07;;;9.60;99.90;;;;;;5063824;28;20869;-85
2022/11/17 03:14:51;;;;;;;6.37;5.77;;;9.60;99.90;;;;;;5054782;28;20962;-85
2022/11/17 03:17:22;;;;;;;8.57;7.27;;;9.70;99.90;;;;;;5054056;28;20447;-84
2022/11/17 03:19:57;;;;;;;6.00;5.50;;;9.80;99.90;;;;;;5053782;28;20476;-83
2022/11/17 03:22:28;;;;;;;10.40;6.77;;;9.90;99.90;;;;;;5058789;28;20452;-83
2022/11/17 03:24:59;;;;;;;6.87;6.03;;;10.00;99.90;;;;;;5061243;28;20441;-85
2022/11/17 03:27:29;;;;;;;10.40;6.63;;;10.10;99.90;;;;;;5054006;28;20480;-83
2022/11/17 03:29:59;;;;;;;7.97;6.67;;;10.10;99.90;;;;;;5054730;28;20465;-84
2022/11/17 03:32:30;;;;;;;7.80;5.53;;;10.10;99.90;;;;;;5054175;28;20449;-84
2022/11/17 03:35:01;;;;;;;6.70;6.03;;;10.10;99.90;;;;;;5053856;28;20440;-84
2022/11/17 03:37:33;;;;;;;6.50;5.60;;;10.10;99.90;;;;;;5053678;28;20445;-84
2022/11/17 03:40:04;;;;;;;6.87;5.93;;;10.10;99.90;;;;;;5059950;28;20468;-83
2022/11/17 03:42:34;;;;;;;7.07;6.40;;;10.10;99.90;;;;;;5078376;28;20520;-83
2022/11/17 03:45:06;;;;;;;7.30;5.57;;;10.20;99.90;;;;;;5063945;28;20440;-84
2022/11/17 03:47:36;;;;;;;8.93;6.30;;;10.20;99.90;;;;;;5059223;28;20563;-83
2022/11/17 03:50:08;;;;;;;5.63;5.00;;;10.10;99.90;;;;;;5073327;28;20521;-84
2022/11/17 03:52:36;;;;;;;6.00;5.40;;;10.00;99.90;;;;;;5055584;28;20451;-83
2022/11/17 03:55:04;;;;;;;7.23;6.33;;;10.10;99.90;;;;;;5053278;28;20950;-83
2022/11/17 03:57:37;;;;;;;5.30;4.80;;;10.10;99.90;;;;;;5052842;28;20448;-83
2022/11/17 04:00:07;;;;;;;4.97;3.40;;;10.30;99.90;;;;;;5053619;28;20468;-83
2022/11/17 04:02:35;;;;;;;3.60;3.30;;;10.30;99.90;;;;;;5053573;28;20445;-83
2022/11/17 04:05:07;;;;;;;3.87;3.13;;;10.40;99.90;;;;;;5053292;28;20449;-84
2022/11/17 04:07:36;;;;;;;4.40;3.33;;;10.40;99.90;;;;;;5060419;28;20579;-83
2022/11/17 04:10:05;;;;;;;7.40;3.87;;;10.30;99.90;;;;;;5067580;28;20465;-86
2022/11/17 04:18:01;;;;;;;3.90;3.40;;;10.30;99.90;;;;;;5072246;28;20471;-84
2022/11/17 04:20:34;;;;;;;4.50;4.10;;;10.30;99.90;;;;;;5078437;28;20499;-83
2022/11/17 04:23:07;;;;;;;4.50;3.37;;;10.30;99.90;;;;;;5077705;28;20424;-84
2022/11/17 04:28:37;;;;;;;3.77;3.10;;;10.30;99.90;;;;;;5071651;28;20482;-83
2022/11/17 04:31:09;;;;;;;3.40;3.10;;;10.40;99.90;;;;;;5076035;28;20447;-83
2022/11/17 04:33:39;;;;;;;4.30;3.70;;;10.40;99.90;;;;;;5067253;28;20444;-83
2022/11/17 04:36:08;;;;;;;6.83;3.43;;;10.50;99.90;;;;;;5064741;28;20437;-84
2022/11/17 04:38:35;;;;;;;5.60;4.10;;;10.50;99.90;;;;;;5056075;28;20472;-84
2022/11/17 04:43:48;;;;;;;4.53;3.80;;;10.60;99.90;;;;;;5053379;28;20488;-84
2022/11/17 04:46:16;;;;;;;5.97;3.73;;;10.70;99.90;;;;;;5053621;28;20480;-84
2022/11/17 04:48:44;;;;;;;3.47;3.17;;;10.70;99.90;;;;;;5052539;28;20473;-84
2022/11/17 04:51:11;;;;;;;4.67;3.30;;;10.70;99.90;;;;;;5053541;28;20449;-84
2022/11/17 04:53:38;;;;;;;4.47;4.07;;;10.60;99.90;;;;;;5055469;28;20445;-84
2022/11/17 04:56:06;;;;;;;6.50;3.73;;;10.70;99.90;;;;;;5055114;28;20462;-84
2022/11/17 04:58:33;;;;;;;5.63;5.13;;;10.70;99.90;;;;;;5052718;28;20468;-84
2022/11/17 05:01:11;;;;;;;5.57;4.20;;;10.80;99.90;;;;;;5067901;28;20439;-84
2022/11/17 05:03:39;;;;;;;4.23;3.83;;;10.80;99.90;;;;;;5074204;28;20469;-84
2022/11/17 05:06:07;;;;;;;4.23;3.53;;;10.80;99.90;;;;;;5056220;28;20944;-84
2022/11/17 05:08:38;;;;;;;5.30;4.80;;;10.80;99.90;;;;;;5054414;28;20487;-86
2022/11/17 05:13:51;;;;;;;4.70;3.50;;;10.90;99.90;;;;;;5056841;28;20428;-84
2022/11/17 05:19:03;;;;;;;5.40;3.80;;;10.90;99.90;;;;;;5055706;28;20510;-84
2022/11/17 05:21:31;;;;;;;5.30;4.00;;;10.80;99.90;;;;;;5055997;28;20449;-84
2022/11/17 05:23:57;;;;;;;8.83;4.10;;;10.80;99.90;;;;;;5056430;28;20456;-83
2022/11/17 05:26:26;;;;;;;4.80;3.70;;;10.90;99.90;;;;;;5056758;28;20473;-85
2022/11/17 05:28:55;;;;;;;4.57;3.27;;;10.90;99.90;;;;;;5058519;28;20472;-83
2022/11/17 05:31:22;;;;;;;5.60;4.37;;;10.90;99.90;;;;;;5056965;28;20448;-84
2022/11/17 05:33:49;;;;;;;4.07;3.60;;;10.90;99.90;;;;;;5056910;28;20448;-85
2022/11/17 05:36:17;;;;;;;4.03;3.63;;;10.90;99.90;;;;;;5057824;28;20445;-85
2022/11/17 05:38:46;;;;;;;5.20;3.73;;;10.90;99.90;;;;;;5058442;28;20845;-84
2022/11/17 05:41:13;;;;;;;5.60;3.90;;;10.90;99.90;;;;;;5056780;28;20448;-84
2022/11/17 05:43:40;;;;;;;5.80;4.03;;;11.00;99.90;;;;;;5056706;28;20449;-84
2022/11/17 05:46:07;;;;;;;5.57;3.70;;;10.90;99.90;;;;;;5056566;28;20445;-84
2022/11/17 05:48:33;;;;;;;5.77;3.77;;;10.90;99.90;;;;;;5056917;28;20471;-85
2022/11/17 05:51:01;;;;;;;4.50;3.90;;;10.90;99.90;;;;;;5057574;28;20452;-85
2022/11/17 05:53:29;;;;;;;4.97;4.50;;;10.90;99.90;;;;;;5063039;28;20448;-84
2022/11/17 05:56:13;;;;;;;4.50;4.10;;;10.90;99.90;;;;;;5071171;28;20468;-84
2022/11/17 05:58:43;;;;;;;4.27;3.60;;;11.00;99.90;;;;;;5063057;28;20528;-85
2022/11/17 06:01:13;;;;;;;3.90;3.40;;;11.00;99.90;;;;;;5070291;28;20444;-85
2022/11/17 06:03:45;;;;;;;6.07;4.23;;;10.90;99.90;;;;;;5065622;28;20440;-84
2022/11/17 06:06:12;;;;;;;4.20;3.80;;;10.90;99.90;;;;;;5067541;28;20817;-84
2022/11/17 06:08:39;;;;;;;5.17;4.43;;;10.80;99.90;;;;;;5064766;28;20495;-85
2022/11/17 06:11:07;;;;;;;4.83;4.40;;;10.90;99.90;;;;;;5066217;28;20444;-84
2022/11/17 06:13:34;;;;;;;5.80;5.00;;;10.80;99.90;;;;;;5072242;28;20451;-84
2022/11/17 06:16:03;;;;;;;7.70;4.33;;;10.70;99.90;;;;;;5077545;28;20452;-83
2022/11/17 06:18:34;;;;;;;5.13;4.50;;;10.80;99.90;;;;;;5068024;28;20472;-85
2022/11/17 06:21:01;;;;;;;5.13;4.17;;;10.80;99.90;;;;;;5077822;28;20433;-84
2022/11/17 06:23:31;;;;;;;7.00;4.03;;;10.90;99.90;;;;;;5074673;28;20449;-83
2022/11/17 06:26:00;;;;;;;4.13;3.70;;;10.90;99.90;;;;;;5067765;28;20445;-85
2022/11/17 06:28:30;;;;;;;4.07;3.47;;;10.90;99.90;;;;;;5061382;28;20489;-84
2022/11/17 06:30:57;;;;;;;6.73;4.00;;;10.90;99.90;;;;;;5066680;28;20973;-85
2022/11/17 06:33:24;;;;;;;7.80;4.87;;;10.90;99.90;;;;;;5056650;28;20895;-84
2022/11/17 06:35:52;;;;;;;5.70;4.90;;;10.90;99.90;;;;;;5058808;28;20499;-85
2022/11/17 06:38:18;;;;;;;6.70;4.37;;;10.80;99.90;;;;;;5056019;28;20471;-84
2022/11/17 06:40:45;;;;;;;6.80;5.00;;;10.90;99.90;;;;;;5055563;28;20470;-84
2022/11/17 06:43:12;;;;;;;9.00;5.47;;;10.80;99.90;;;;;;5055139;28;20452;-85
2022/11/17 06:45:42;;;;;;;10.90;5.70;;;10.60;99.90;;;;;;5070582;28;20448;-83
2022/11/17 06:48:10;;;;;;;8.23;4.67;;;10.50;99.90;;;;;;5059143;28;20523;-83
2022/11/17 06:50:36;;;;;;;6.03;4.70;;;10.40;99.90;;;;;;5055872;28;20459;-83
2022/11/17 06:53:05;;;;;;;8.60;5.23;;;10.40;99.90;;;;;;5074433;28;20445;-84
2022/11/17 06:55:33;;;;;;;6.83;4.47;;;10.40;99.90;;;;;;5064730;28;20507;-84
2022/11/17 06:58:00;;;;;;;5.47;4.10;;;10.50;99.90;;;;;;5055003;28;20491;-85
2022/11/17 07:00:27;;;;;;;6.47;5.70;;;10.70;99.90;;;;;;5063390;28;20448;-84
2022/11/17 07:03:00;;;;;;;7.30;5.03;;;10.80;99.90;;;;;;5075727;28;20444;-84
2022/11/17 07:05:27;;;;;;;6.10;5.50;;;10.90;99.90;;;;;;5063358;28;20444;-85
2022/11/17 07:07:57;;;;;;;9.87;5.67;;;11.00;99.90;;;;;;5055223;28;20488;-86
2022/11/17 07:10:27;;;;;;;9.83;6.47;;;11.00;99.90;;;;;;5065874;28;20440;-82
2022/11/17 07:12:54;;;;;;;8.20;5.13;;;11.10;99.90;;;;;;5071444;28;20444;-80
2022/11/17 07:15:23;;;;;;;8.07;5.43;;;11.10;99.90;;;;;;5067886;28;20620;-82
2022/11/17 07:17:50;;;;;;;11.93;7.63;;;11.20;99.90;;;;;;5059096;28;20441;-84
2022/11/17 07:20:18;;;;;;;13.67;6.90;;;11.20;99.90;;;;;;5057708;28;20829;-85
2022/11/17 07:22:46;;;;;;;9.13;5.50;;;11.20;99.90;;;;;;5068578;28;20446;-84
2022/11/17 07:25:12;;;;;;;5.50;4.70;;;11.20;99.90;;;;;;5070379;28;20447;-85
2022/11/17 07:27:40;;;;;;;4.67;4.00;;;11.20;99.90;;;;;;5095341;28;20487;-85
2022/11/17 07:30:10;;;;;;;5.47;3.87;;;11.20;99.90;;;;;;5094500;28;20475;-85
2022/11/17 07:32:37;;;;;;;5.40;3.60;;;11.30;99.90;;;;;;5083746;28;20452;-83
2022/11/17 07:35:05;;;;;;;6.07;4.00;;;11.40;99.90;;;;;;5095469;28;20463;-84
2022/11/17 07:37:34;;;;;;;8.27;3.67;;;11.50;99.90;;;;;;5075278;28;20474;-88
2022/11/17 07:40:01;;;;;;;8.70;4.23;;;11.50;99.90;;;;;;5076851;28;20471;-83
2022/11/17 07:42:28;;;;;;;4.30;3.00;;;11.60;99.90;;;;;;5075990;28;20470;-83
2022/11/17 07:44:54;;;;;;;4.50;3.53;;;11.60;99.90;;;;;;5078460;28;20818;-83
2022/11/17 07:47:21;;;;;;;5.30;3.70;;;11.60;99.90;;;;;;5089661;28;20489;-83
2022/11/17 07:49:48;;;;;;;6.00;2.70;;;11.70;99.90;;;;;;5083346;28;20464;-83
2022/11/17 07:52:14;;;;;;;3.37;3.07;;;11.80;99.90;;;;;;5079939;28;20447;-83
2022/11/17 07:54:43;;;;;;;3.10;2.63;;;11.80;99.90;;;;;;5089644;28;20785;-83
2022/11/17 07:57:09;;;;;;;2.67;2.40;;;11.80;99.90;;;;;;5092451;28;20434;-84
2022/11/17 07:59:36;;;;;;;4.13;2.00;;;11.80;99.90;;;;;;5085190;28;20470;-85
2022/11/17 08:02:03;;;;;;;4.97;2.40;;;11.90;99.90;;;;;;5071676;28;20437;-84
2022/11/17 08:04:30;;;;;;;4.77;2.13;;;12.00;99.90;;;;;;5068299;28;20439;-84
2022/11/17 08:06:56;;;;;;;5.17;2.23;;;12.20;99.90;;;;;;5067171;28;20440;-84
2022/11/17 08:09:23;;;;;;;3.40;2.10;;;12.20;99.90;;;;;;5089197;28;20456;-84
2022/11/17 08:11:51;;;;;;;4.03;2.40;;;12.20;99.90;;;;;;5094438;28;20491;-83
2022/11/17 08:14:18;;;;;;;3.70;2.00;;;12.30;99.90;;;;;;5082602;28;20964;-86
2022/11/17 08:16:45;;;;;;;3.23;1.90;;;12.40;99.90;;;;;;5064977;28;20441;-81
2022/11/17 08:19:13;;;;;;;4.77;1.60;;;12.40;99.90;;;;;;5071280;28;20470;-80
2022/11/17 08:21:40;;;;;;;3.77;2.57;;;12.50;99.90;;;;;;5063510;28;20444;-85
2022/11/17 08:24:07;;;;;;;5.00;2.47;;;12.60;99.90;;;;;;5069671;28;20448;-85
2022/11/17 08:26:34;;;;;;;3.83;1.37;;;12.60;99.90;;;;;;5071131;28;20439;-83
2022/11/17 08:29:02;;;;;;;4.33;1.80;;;12.70;99.90;;;;;;5082477;28;20494;-84
2022/11/17 08:31:28;;;;;;;4.50;1.50;;;12.80;99.90;;;;;;5066553;28;20788;-83
2022/11/17 08:33:55;;;;;;;3.50;1.60;;;12.90;99.90;;;;;;5070841;28;20468;-83
2022/11/17 08:36:22;;;;;;;3.23;1.40;;;12.90;99.90;;;;;;5072703;28;20450;-84
2022/11/17 08:38:49;;;;;;;2.83;1.10;;;12.90;99.90;;;;;;5062059;28;20464;-87
2022/11/17 08:41:15;;;;;;;2.60;1.10;;;12.90;99.90;;;;;;5074643;28;20437;-83
2022/11/17 08:43:42;;;;;;;3.03;1.47;;;12.90;99.90;;;;;;5082207;28;20452;-84
2022/11/17 08:46:13;;;;;;;3.60;1.13;;;12.90;99.90;;;;;;5087284;28;20443;-81
2022/11/17 08:48:40;;;;;;;2.20;0.83;;;13.00;99.90;;;;;;5089665;28;20479;-82
2022/11/17 08:51:08;;;;;;;4.80;2.60;;;13.00;99.90;;;;;;5068179;28;20448;-83
2022/11/17 08:53:35;;;;;;;5.23;1.20;;;13.00;99.90;;;;;;5078893;28;20444;-82
2022/11/17 08:56:06;;;;;;;2.17;0.90;;;13.00;99.90;;;;;;5076336;28;20924;-81
2022/11/17 08:58:38;;;;;;;2.47;0.70;;;13.00;99.90;;;;;;5076063;28;20456;-82
2022/11/17 09:01:07;;;;;;;4.10;0.80;;;13.20;99.90;;;;;;5079459;28;20446;-84
2022/11/17 09:03:36;;;;;;;3.50;1.10;;;13.30;99.90;;;;;;5074801;28;20447;-80
2022/11/17 09:06:04;;;;;;;1.90;0.83;;;13.30;99.90;;;;;;5071702;28;20441;-82
2022/11/17 09:08:31;;;;;;;4.13;0.90;;;13.30;99.90;;;;;;5077763;28;21021;-82
2022/11/17 09:10:58;;;;;;;2.10;0.60;;;13.40;99.90;;;;;;5084702;28;20778;-81
2022/11/17 09:13:25;;;;;;;2.67;0.97;;;13.40;99.90;;;;;;5080610;28;20452;-81
2022/11/17 09:15:52;;;;;;;2.93;0.80;;;13.50;99.90;;;;;;5085210;28;20455;-81
2022/11/17 09:18:19;;;;;;;1.50;1.00;;;13.50;99.90;;;;;;5077823;28;20488;-82
2022/11/17 09:20:47;;;;;;;1.10;0.50;;;13.60;99.90;;;;;;5073313;28;20804;-82
2022/11/17 09:23:13;;;;;;;2.73;0.90;;;13.60;99.90;;;;;;5078314;28;20437;-82
2022/11/17 09:25:40;;;;;;;4.80;1.20;;;13.70;99.90;;;;;;5081004;28;20448;-83
2022/11/17 09:28:07;;;;;;;4.23;1.00;;;13.70;99.90;;;;;;5072239;28;20571;-82
2022/11/17 09:30:34;;;;;;;4.23;0.90;;;13.70;99.90;;;;;;5077042;28;20450;-81
2022/11/17 09:33:00;;;;;;;1.60;0.93;;;13.80;99.90;;;;;;5091222;28;20472;-84
2022/11/17 09:35:27;;;;;;;3.53;0.90;;;13.80;99.90;;;;;;5081887;28;20832;-85
2022/11/17 09:38:00;;;;;;;2.30;0.90;;;14.00;99.90;;;;;;5081745;28;20420;-84
2022/11/17 09:40:28;;;;;;;3.00;1.53;;;14.30;99.90;;;;;;5085843;28;20501;-83
2022/11/17 09:42:55;;;;;;;1.80;0.67;;;14.40;99.90;;;;;;5090100;28;20508;-83
2022/11/17 09:45:25;;;;;;;4.17;1.13;;;14.50;99.90;;;;;;5086941;28;20440;-84
2022/11/17 09:47:57;;;;;;;3.80;1.07;;;14.60;99.90;;;;;;5084698;28;20888;-84
2022/11/17 09:50:29;;;;;;;4.50;1.13;;;14.80;99.90;;;;;;5093081;28;20491;-84
2022/11/17 09:53:03;;;;;;;1.43;0.70;;;14.70;99.90;;;;;;5094310;28;20478;-83
2022/11/17 09:55:34;;;;;;;2.63;1.67;;;14.50;99.90;;;;;;5071223;28;20444;-84
2022/11/17 09:58:11;;;;;;;1.60;0.93;;;14.20;99.90;;;;;;5071604;28;20454;-83
2022/11/17 10:00:40;;;;;;;2.13;1.47;;;14.20;99.90;;;;;;5074459;28;20884;-83
2022/11/17 10:03:15;;;;;;;4.40;1.90;;;14.20;99.90;;;;;;5065969;28;20530;-84
2022/11/17 10:05:42;;;;;;;3.80;1.60;;;14.30;99.90;;;;;;5070216;28;20931;-84
2022/11/17 10:08:16;;;;;;;2.30;1.00;;;14.30;99.90;;;;;;5070485;28;20479;-85
2022/11/17 10:10:44;;;;;;;3.30;1.50;;;14.30;99.90;;;;;;5067528;28;20435;-84
2022/11/17 10:13:21;;;;;;;4.07;1.70;;;14.40;99.90;;;;;;5072232;28;20535;-83
2022/11/17 10:15:51;;;;;;;3.47;1.03;;;14.40;99.90;;;;;;5093696;28;20518;-84
2022/11/17 10:18:18;;;;;;;5.90;1.30;;;14.60;99.90;;;;;;5090092;28;20470;-83
2022/11/17 10:20:46;;;;;;;5.20;1.40;;;15.40;99.90;;;;;;5063680;28;20532;-84
2022/11/17 10:23:16;;;;;;;6.03;1.20;;;16.20;99.90;;;;;;5068827;28;20819;-84
2022/11/17 10:25:44;;;;;;;3.00;1.17;;;16.70;99.90;;;;;;5073097;28;20455;-85
2022/11/17 10:28:27;;;;;;;4.83;1.17;;;17.10;99.20;;;;;;5064930;28;20488;-84
2022/11/17 10:30:56;;;;;;;6.07;1.97;;;17.10;97.40;;;;;;5065640;28;20433;-84
2022/11/17 10:33:37;;;;;;;5.90;1.00;;;16.80;97.40;;;;;;5064801;28;20449;-84
2022/11/17 10:36:07;;;;;;;4.90;1.30;;;16.60;97.30;;;;;;5084818;28;20430;-84
2022/11/17 10:38:36;;;;;;;4.00;1.43;;;16.50;98.00;;;;;;5067366;28;20962;-85
2022/11/17 10:41:03;;;;;;;6.30;1.43;;;17.30;98.10;;;;;;5063609;28;20438;-84
2022/11/17 10:43:33;;;;;;;2.73;1.03;;;18.30;95.40;;;;;;5063504;28;20529;-84
2022/11/17 10:46:04;;;;;;;3.30;1.30;;;19.50;93.40;;;;;;5068835;28;20440;-84
2022/11/17 10:48:32;;;;;;;3.97;1.27;;;19.40;91.90;;;;;;5074972;28;20535;-84
2022/11/17 10:51:01;;;;;;;4.07;1.10;;;18.70;92.10;;;;;;5072159;28;20540;-84
2022/11/17 10:53:40;;;;;;;4.13;1.50;;;17.20;92.70;;;;;;5074697;28;20991;-84
2022/11/17 10:56:14;;;;;;;5.47;1.60;;;16.60;95.00;;;;;;5074967;28;20527;-84
2022/11/17 10:59:01;;;;;;;5.37;1.10;;;16.40;95.30;;;;;;5076025;28;20494;-84
2022/11/17 11:01:31;;;;;;;4.30;1.27;;;16.20;96.00;;;;;;5071690;28;20450;-85
2022/11/17 11:03:58;;;;;;;4.73;1.20;;;16.60;96.20;;;;;;5094165;28;20487;-89
2022/11/17 11:06:26;;;;;;;5.03;1.50;;;17.00;95.20;;;;;;5094580;28;20508;-85
2022/11/17 11:08:59;;;;;;;3.10;1.30;;;19.50;93.50;;;;;;5086224;28;20486;-86
2022/11/17 11:11:40;;;;;;;4.63;1.50;;;20.30;90.00;;;;;;5082080;28;20447;-86
2022/11/17 11:14:15;;;;;;;4.87;1.70;;;20.70;87.10;;;;;;5083397;28;20948;-86
2022/11/17 11:16:43;;;;;;;2.57;1.07;;;20.70;87.20;;;;;;5082388;28;20443;-86
2022/11/17 11:19:14;;;;;;;2.87;1.00;;;21.00;85.00;;;;;;5080739;28;20485;-86
2022/11/17 11:22:00;;;;;;;4.83;1.50;;;20.20;83.60;;;;;;5093590;28;20436;-87
2022/11/17 11:24:46;;;;;;;4.07;1.23;;;20.40;86.30;;;;;;5081020;28;20431;-88
2022/11/17 11:27:28;;;;;;;4.90;1.30;;;21.20;84.60;;;;;;5079818;28;20515;-87
2022/11/17 11:30:02;;;;;;;2.63;0.97;;;21.20;82.30;;;;;;5075222;28;20510;-87
2022/11/17 11:32:40;;;;;;;4.33;1.40;;;21.20;82.60;;;;;;5076717;28;20440;-87
2022/11/17 11:35:37;;;;;;;4.30;1.47;;;21.10;80.70;;;;;;5076257;28;20440;-86
2022/11/17 11:38:15;;;;;;;2.50;1.47;;;20.20;81.60;;;;;;5088830;28;20421;-86
2022/11/17 11:40:52;;;;;;;4.47;1.50;;;19.80;84.10;;;;;;5084017;28;20448;-88
2022/11/17 11:43:30;;;;;;;2.70;1.07;;;20.40;82.80;;;;;;5084866;28;20440;-86
2022/11/17 11:46:04;;;;;;;4.63;1.33;;;18.70;84.20;;;;;;5082315;28;20436;-83
2022/11/17 11:48:33;;;;;;;5.23;1.47;;;18.60;88.40;;;;;;5077643;28;20486;-84
2022/11/17 11:51:03;;;;;;;3.97;1.40;;;18.70;87.50;;;;;;5075907;28;20437;-84
2022/11/17 11:53:42;;;;;;;5.10;1.47;;;18.20;89.20;;;;;;5077380;28;20450;-85
2022/11/17 11:56:16;;;;;;;9.60;1.27;;;18.00;90.90;;;;;;5096343;28;20436;-84
2022/11/17 11:58:51;;;;;;;9.50;1.43;;;18.50;90.30;;;;;;5096617;28;20451;-83
2022/11/17 12:01:20;;;;;;;4.70;1.57;;;18.00;90.60;;;;;;5084722;28;20446;-85
2022/11/17 12:03:53;;;;;;;3.90;1.10;;;17.50;90.50;;;;;;5083037;28;20452;-84
2022/11/17 12:06:41;;;;;;;3.50;1.73;;;17.80;91.70;;;;;;5079785;28;20447;-86
2022/11/17 12:09:28;;;;;;;4.00;1.70;;;19.40;89.40;;;;;;5081177;28;20490;-84
2022/11/17 12:12:00;;;;;;;3.97;1.40;;;20.50;86.80;;;;;;5084077;28;20439;-84
2022/11/17 12:14:28;;;;;;;3.60;1.57;;;21.80;81.10;;;;;;5068699;28;20444;-84
2022/11/17 12:17:03;;;;;;;4.67;1.90;;;22.00;81.80;;;;;;5065407;28;20452;-84
2022/11/17 12:19:51;;;;;;;3.47;1.00;;;22.20;79.00;;;;;;5069918;28;20472;-83
2022/11/17 12:22:57;;;;;;;4.70;1.50;;;21.10;79.10;;;;;;5069721;28;20449;-82
2022/11/17 12:25:28;;;;;;;4.53;1.77;;;19.80;81.30;;;;;;5068316;28;20526;-81
2022/11/17 12:27:57;;;;;;;5.23;2.30;;;19.20;85.80;;;;;;5066248;28;20459;-83
2022/11/17 12:30:56;;;;;;;3.57;1.60;;;19.60;85.80;;;;;;5062883;28;20491;-83
2022/11/17 12:33:23;;;;;;;5.37;1.80;;;19.50;83.60;;;;;;5061169;28;20449;-83
2022/11/17 12:36:24;;;;;;;7.23;1.57;;;18.60;86.20;;;;;;5059976;28;20448;-83
2022/11/17 12:38:51;;;;;;;4.20;2.20;;;17.50;89.00;;;;;;5061515;28;20476;-82
2022/11/17 12:41:51;;;;;;;3.83;2.03;;;17.40;90.90;;;;;;5061741;28;20460;-84
2022/11/17 12:44:59;;;;;;;5.73;1.60;;;17.50;90.70;;;;;;5059936;28;20460;-83
2022/11/17 12:47:28;;;;;;;5.00;1.63;;;17.30;90.50;;;;;;5054955;28;20882;-82
2022/11/17 12:50:33;;;;;;;4.10;2.10;;;16.60;91.50;;;;;;5058656;28;20491;-83
2022/11/17 12:53:19;;;;;;;5.83;2.17;;;16.40;92.40;;;;;;5060368;28;20464;-85
2022/11/17 12:56:14;;;;;;;4.90;2.10;;;16.30;92.70;;;;;;5028863;28;20441;-83
2022/11/17 12:58:51;;;;;;;7.00;1.63;;;16.10;92.50;;;;;;5046503;28;20471;-83
2022/11/17 13:01:28;;;;;;;4.30;1.80;;;16.30;93.30;;;;;;5059800;28;20450;-84
2022/11/17 13:04:01;;;;;;;7.00;1.67;;;16.80;92.50;;;;;;5061518;28;20452;-87
2022/11/17 13:06:27;;;;;;;5.37;1.73;;;16.90;91.80;;;;;;5071750;28;20456;-83
2022/11/17 13:08:59;;;;;;;4.70;1.97;;;17.00;92.50;;;;;;5065304;28;20480;-82
2022/11/17 13:11:26;;;;;;;4.30;1.80;;;17.30;92.10;;;;;;5061071;28;20445;-81
2022/11/17 13:14:10;;;;;;;5.53;1.63;;;17.10;91.50;;;;;;5059851;28;20445;-82
2022/11/17 13:16:44;;;;;;;6.83;2.33;;;17.00;91.60;;;;;;5060523;28;20444;-83
2022/11/17 13:19:31;;;;;;;6.80;2.80;;;16.80;91.50;;;;;;5059037;28;20486;-83
2022/11/17 13:21:59;;;;;;;7.33;1.70;;;17.20;91.60;;;;;;5058707;28;20441;-83
2022/11/17 13:24:35;;;;;;;4.40;1.40;;;17.40;90.10;;;;;;5066014;28;20460;-82
2022/11/17 13:27:06;;;;;;;5.67;2.03;;;17.00;90.10;;;;;;5076743;28;20437;-81
2022/11/17 13:29:33;;;;;;;4.63;1.80;;;17.00;90.70;;;;;;5085903;28;20493;-82
2022/11/17 13:32:16;;;;;;;9.13;1.60;;;16.90;91.10;;;;;;5066178;28;20487;-83
2022/11/17 13:34:48;;;;;;;5.13;1.60;;;16.70;90.70;;;;;;5062925;28;20449;-82
2022/11/17 13:37:17;;;;;;;5.53;1.70;;;16.80;91.20;;;;;;5069228;28;20450;-84